sensor_id;sensor_type;location;lat;lon;timestamp;noise_LAeq;noise_LA_min;noise_LA_max;noise_LA01;noise_LA95
66335;Laerm;53138;51.496;6.410;2023-03-13T00:00:01;41.66;39.10;52.47;;
66335;Laerm;53138;51.496;6.410;2023-03-13T00:00:14;42.38;38.82;57.57;;
66335;Laerm;53138;51.496;6.410;2023-03-13T00:00:25;41.31;38.95;48.18;;
66335;Laerm;53138;51.496;6.410;2023-03-13T00:00:35;41.47;38.70;53.98;;
66335;Laerm;53138;51.496;6.410;2023-03-13T00:00:45;40.50;38.08;46.06;;
66335;Laerm;53138;51.496;6.410;2023-03-13T00:00:56;40.15;37.65;46.36;;
66335;Laerm;53138;51.496;6.410;2023-03-13T00:01:14;40.19;36.58;47.23;;
66335;Laerm;53138;51.496;6.410;2023-03-13T00:01:26;40.64;37.77;52.65;;
66335;Laerm;53138;51.496;6.410;2023-03-13T00:01:38;39.78;37.06;44.95;;
66335;Laerm;53138;51.496;6.410;2023-03-13T00:01:49;40.80;37.83;49.49;;
66335;Laerm;53138;51.496;6.410;2023-03-13T00:01:59;41.63;37.83;59.53;;
66335;Laerm;53138;51.496;6.410;2023-03-13T00:02:10;40.73;38.30;49.52;;
66335;Laerm;53138;51.496;6.410;2023-03-13T00:02:20;40.42;37.78;48.18;;
66335;Laerm;53138;51.496;6.410;2023-03-13T00:02:30;41.45;37.38;55.66;;
66335;Laerm;53138;51.496;6.410;2023-03-13T00:02:40;39.11;36.91;42.30;;
66335;Laerm;53138;51.496;6.410;2023-03-13T00:02:51;39.85;36.93;50.42;;
66335;Laerm;53138;51.496;6.410;2023-03-13T00:03:01;40.21;37.25;55.40;;
66335;Laerm;53138;51.496;6.410;2023-03-13T00:03:11;39.52;37.29;43.48;;
66335;Laerm;53138;51.496;6.410;2023-03-13T00:03:22;39.98;36.91;48.90;;
66335;Laerm;53138;51.496;6.410;2023-03-13T00:03:32;39.89;37.40;46.11;;
66335;Laerm;53138;51.496;6.410;2023-03-13T00:03:42;39.76;37.14;43.29;;
66335;Laerm;53138;51.496;6.410;2023-03-13T00:03:52;40.18;37.28;50.58;;
66335;Laerm;53138;51.496;6.410;2023-03-13T00:04:04;39.79;36.89;51.70;;
66335;Laerm;53138;51.496;6.410;2023-03-13T00:04:14;39.04;36.53;45.11;;
66335;Laerm;53138;51.496;6.410;2023-03-13T00:04:25;37.58;34.51;43.76;;
66335;Laerm;53138;51.496;6.410;2023-03-13T00:04:35;38.35;35.00;48.10;;
66335;Laerm;53138;51.496;6.410;2023-03-13T00:04:45;38.67;35.71;45.54;;
66335;Laerm;53138;51.496;6.410;2023-03-13T00:04:55;38.84;36.13;46.42;;
66335;Laerm;53138;51.496;6.410;2023-03-13T00:05:05;39.19;36.08;51.70;;
66335;Laerm;53138;51.496;6.410;2023-03-13T00:05:16;39.35;35.79;52.20;;
66335;Laerm;53138;51.496;6.410;2023-03-13T00:05:26;37.81;35.16;41.06;;
66335;Laerm;53138;51.496;6.410;2023-03-13T00:05:36;37.58;34.82;40.87;;
66335;Laerm;53138;51.496;6.410;2023-03-13T00:05:47;38.30;36.10;41.50;;
66335;Laerm;53138;51.496;6.410;2023-03-13T00:05:57;38.48;35.68;44.26;;
66335;Laerm;53138;51.496;6.410;2023-03-13T00:06:08;38.39;35.60;44.21;;
66335;Laerm;53138;51.496;6.410;2023-03-13T00:06:18;37.92;35.13;41.05;;
66335;Laerm;53138;51.496;6.410;2023-03-13T00:06:29;38.82;36.21;46.29;;
66335;Laerm;53138;51.496;6.410;2023-03-13T00:06:43;38.88;35.68;53.44;;
66335;Laerm;53138;51.496;6.410;2023-03-13T00:06:53;38.41;35.14;43.02;;
66335;Laerm;53138;51.496;6.410;2023-03-13T00:07:03;40.26;36.71;50.37;;
66335;Laerm;53138;51.496;6.410;2023-03-13T00:07:14;41.42;38.80;51.38;;
66335;Laerm;53138;51.496;6.410;2023-03-13T00:07:25;41.01;38.09;44.93;;
66335;Laerm;53138;51.496;6.410;2023-03-13T00:07:35;39.65;36.35;41.99;;
66335;Laerm;53138;51.496;6.410;2023-03-13T00:07:45;39.26;36.75;41.95;;
66335;Laerm;53138;51.496;6.410;2023-03-13T00:07:55;39.12;36.52;45.06;;
66335;Laerm;53138;51.496;6.410;2023-03-13T00:08:05;39.12;36.64;44.84;;
66335;Laerm;53138;51.496;6.410;2023-03-13T00:08:16;39.79;37.49;43.63;;
66335;Laerm;53138;51.496;6.410;2023-03-13T00:08:29;40.46;37.93;43.67;;
66335;Laerm;53138;51.496;6.410;2023-03-13T00:08:39;40.36;37.16;43.20;;
66335;Laerm;53138;51.496;6.410;2023-03-13T00:08:49;40.47;37.67;47.81;;
66335;Laerm;53138;51.496;6.410;2023-03-13T00:09:00;39.66;37.06;42.73;;
66335;Laerm;53138;51.496;6.410;2023-03-13T00:09:11;39.37;36.67;44.36;;
66335;Laerm;53138;51.496;6.410;2023-03-13T00:09:22;38.90;36.28;46.88;;
66335;Laerm;53138;51.496;6.410;2023-03-13T00:09:32;39.64;35.82;43.15;;
66335;Laerm;53138;51.496;6.410;2023-03-13T00:09:43;40.38;37.17;49.63;;
66335;Laerm;53138;51.496;6.410;2023-03-13T00:09:53;39.65;36.96;43.35;;
66335;Laerm;53138;51.496;6.410;2023-03-13T00:10:03;38.48;35.98;46.35;;
66335;Laerm;53138;51.496;6.410;2023-03-13T00:10:14;38.55;35.54;44.58;;
66335;Laerm;53138;51.496;6.410;2023-03-13T00:10:24;39.36;36.44;49.54;;
66335;Laerm;53138;51.496;6.410;2023-03-13T00:10:35;38.76;36.27;43.24;;
66335;Laerm;53138;51.496;6.410;2023-03-13T00:10:46;38.39;35.98;41.79;;
66335;Laerm;53138;51.496;6.410;2023-03-13T00:10:56;38.38;34.81;53.65;;
66335;Laerm;53138;51.496;6.410;2023-03-13T00:11:07;37.22;34.73;40.01;;
66335;Laerm;53138;51.496;6.410;2023-03-13T00:11:18;37.08;34.57;45.41;;
66335;Laerm;53138;51.496;6.410;2023-03-13T00:11:28;36.24;33.41;42.51;;
66335;Laerm;53138;51.496;6.410;2023-03-13T00:11:38;36.42;33.27;45.59;;
66335;Laerm;53138;51.496;6.410;2023-03-13T00:11:49;36.47;33.67;49.73;;
66335;Laerm;53138;51.496;6.410;2023-03-13T00:11:59;35.13;33.08;40.61;;
66335;Laerm;53138;51.496;6.410;2023-03-13T00:12:09;35.33;32.95;47.58;;
66335;Laerm;53138;51.496;6.410;2023-03-13T00:12:20;36.24;32.93;50.56;;
66335;Laerm;53138;51.496;6.410;2023-03-13T00:12:30;35.67;32.64;47.97;;
66335;Laerm;53138;51.496;6.410;2023-03-13T00:12:40;36.36;32.62;52.93;;
66335;Laerm;53138;51.496;6.410;2023-03-13T00:12:50;35.10;32.50;40.17;;
66335;Laerm;53138;51.496;6.410;2023-03-13T00:13:00;36.32;33.08;49.24;;
66335;Laerm;53138;51.496;6.410;2023-03-13T00:13:10;35.28;33.12;41.31;;
66335;Laerm;53138;51.496;6.410;2023-03-13T00:13:21;35.74;33.23;44.61;;
66335;Laerm;53138;51.496;6.410;2023-03-13T00:13:31;35.58;33.02;42.21;;
66335;Laerm;53138;51.496;6.410;2023-03-13T00:13:42;35.46;33.19;38.77;;
66335;Laerm;53138;51.496;6.410;2023-03-13T00:13:56;35.56;33.18;48.28;;
66335;Laerm;53138;51.496;6.410;2023-03-13T00:14:06;37.23;32.52;57.37;;
66335;Laerm;53138;51.496;6.410;2023-03-13T00:14:17;35.82;32.92;43.91;;
66335;Laerm;53138;51.496;6.410;2023-03-13T00:14:27;35.73;33.46;49.42;;
66335;Laerm;53138;51.496;6.410;2023-03-13T00:14:37;36.51;33.14;51.50;;
66335;Laerm;53138;51.496;6.410;2023-03-13T00:14:47;35.54;33.01;43.79;;
66335;Laerm;53138;51.496;6.410;2023-03-13T00:14:57;35.90;32.10;52.17;;
66335;Laerm;53138;51.496;6.410;2023-03-13T00:15:08;34.77;32.65;44.39;;
66335;Laerm;53138;51.496;6.410;2023-03-13T00:15:18;35.19;32.75;45.07;;
66335;Laerm;53138;51.496;6.410;2023-03-13T00:15:28;35.04;32.55;40.35;;
66335;Laerm;53138;51.496;6.410;2023-03-13T00:15:38;33.97;32.04;36.62;;
66335;Laerm;53138;51.496;6.410;2023-03-13T00:15:48;35.67;32.43;48.74;;
66335;Laerm;53138;51.496;6.410;2023-03-13T00:16:00;35.71;32.48;49.39;;
66335;Laerm;53138;51.496;6.410;2023-03-13T00:16:13;36.28;32.77;52.32;;
66335;Laerm;53138;51.496;6.410;2023-03-13T00:16:24;34.92;32.65;42.26;;
66335;Laerm;53138;51.496;6.410;2023-03-13T00:16:34;35.69;32.75;48.50;;
66335;Laerm;53138;51.496;6.410;2023-03-13T00:16:46;35.26;32.47;50.60;;
66335;Laerm;53138;51.496;6.410;2023-03-13T00:16:56;36.49;32.39;53.05;;
66335;Laerm;53138;51.496;6.410;2023-03-13T00:17:06;35.12;32.94;41.10;;
66335;Laerm;53138;51.496;6.410;2023-03-13T00:17:17;34.55;32.24;37.09;;
66335;Laerm;53138;51.496;6.410;2023-03-13T00:17:27;37.08;32.51;55.17;;
66335;Laerm;53138;51.496;6.410;2023-03-13T00:17:38;34.97;32.48;45.36;;
66335;Laerm;53138;51.496;6.410;2023-03-13T00:17:48;35.31;33.07;45.86;;
66335;Laerm;53138;51.496;6.410;2023-03-13T00:17:58;34.97;32.76;37.59;;
66335;Laerm;53138;51.496;6.410;2023-03-13T00:18:08;35.85;33.13;46.12;;
66335;Laerm;53138;51.496;6.410;2023-03-13T00:18:19;35.55;33.14;42.02;;
66335;Laerm;53138;51.496;6.410;2023-03-13T00:18:29;35.71;33.32;44.53;;
66335;Laerm;53138;51.496;6.410;2023-03-13T00:18:43;35.36;33.50;41.97;;
66335;Laerm;53138;51.496;6.410;2023-03-13T00:18:54;34.93;32.55;45.32;;
66335;Laerm;53138;51.496;6.410;2023-03-13T00:19:07;35.63;33.19;45.87;;
66335;Laerm;53138;51.496;6.410;2023-03-13T00:19:18;35.57;32.98;47.52;;
66335;Laerm;53138;51.496;6.410;2023-03-13T00:19:28;37.94;33.00;53.13;;
66335;Laerm;53138;51.496;6.410;2023-03-13T00:19:38;35.21;33.28;38.84;;
66335;Laerm;53138;51.496;6.410;2023-03-13T00:19:49;35.55;32.98;47.02;;
66335;Laerm;53138;51.496;6.410;2023-03-13T00:19:59;35.67;32.89;47.24;;
66335;Laerm;53138;51.496;6.410;2023-03-13T00:20:10;35.23;32.66;38.24;;
66335;Laerm;53138;51.496;6.410;2023-03-13T00:20:20;35.61;32.64;46.95;;
66335;Laerm;53138;51.496;6.410;2023-03-13T00:20:31;35.43;32.38;42.63;;
66335;Laerm;53138;51.496;6.410;2023-03-13T00:20:41;35.72;33.62;44.12;;
66335;Laerm;53138;51.496;6.410;2023-03-13T00:21:01;35.08;33.00;39.21;;
66335;Laerm;53138;51.496;6.410;2023-03-13T00:21:11;35.42;33.17;40.12;;
66335;Laerm;53138;51.496;6.410;2023-03-13T00:21:22;35.49;33.38;40.19;;
66335;Laerm;53138;51.496;6.410;2023-03-13T00:21:33;35.75;33.81;37.67;;
66335;Laerm;53138;51.496;6.410;2023-03-13T00:21:44;38.78;34.99;57.90;;
66335;Laerm;53138;51.496;6.410;2023-03-13T00:21:54;37.51;34.29;47.20;;
66335;Laerm;53138;51.496;6.410;2023-03-13T00:22:04;35.75;33.38;41.33;;
66335;Laerm;53138;51.496;6.410;2023-03-13T00:22:14;35.66;33.59;39.81;;
66335;Laerm;53138;51.496;6.410;2023-03-13T00:22:24;35.23;33.19;37.74;;
66335;Laerm;53138;51.496;6.410;2023-03-13T00:22:35;36.23;34.01;46.00;;
66335;Laerm;53138;51.496;6.410;2023-03-13T00:22:45;38.77;34.17;54.26;;
66335;Laerm;53138;51.496;6.410;2023-03-13T00:22:55;36.67;34.41;45.62;;
66335;Laerm;53138;51.496;6.410;2023-03-13T00:23:05;37.12;34.64;49.75;;
66335;Laerm;53138;51.496;6.410;2023-03-13T00:23:15;36.98;33.91;49.94;;
66335;Laerm;53138;51.496;6.410;2023-03-13T00:23:26;35.28;32.77;38.51;;
66335;Laerm;53138;51.496;6.410;2023-03-13T00:23:37;35.54;33.57;38.83;;
66335;Laerm;53138;51.496;6.410;2023-03-13T00:23:47;38.48;34.34;52.36;;
66335;Laerm;53138;51.496;6.410;2023-03-13T00:23:58;37.20;34.60;45.04;;
66335;Laerm;53138;51.496;6.410;2023-03-13T00:24:10;37.42;34.01;49.14;;
66335;Laerm;53138;51.496;6.410;2023-03-13T00:24:20;36.88;33.34;51.40;;
66335;Laerm;53138;51.496;6.410;2023-03-13T00:24:30;36.68;33.02;49.29;;
66335;Laerm;53138;51.496;6.410;2023-03-13T00:24:41;37.65;33.71;54.06;;
66335;Laerm;53138;51.496;6.410;2023-03-13T00:24:51;35.67;33.81;42.61;;
66335;Laerm;53138;51.496;6.410;2023-03-13T00:25:01;39.33;33.92;52.68;;
66335;Laerm;53138;51.496;6.410;2023-03-13T00:25:11;37.21;34.16;49.46;;
66335;Laerm;53138;51.496;6.410;2023-03-13T00:25:21;38.81;35.30;49.78;;
66335;Laerm;53138;51.496;6.410;2023-03-13T00:25:31;42.46;36.33;51.16;;
66335;Laerm;53138;51.496;6.410;2023-03-13T00:25:42;46.53;36.36;53.46;;
66335;Laerm;53138;51.496;6.410;2023-03-13T00:25:56;36.52;33.97;46.95;;
66335;Laerm;53138;51.496;6.410;2023-03-13T00:26:07;36.19;33.93;40.91;;
66335;Laerm;53138;51.496;6.410;2023-03-13T00:26:19;36.72;34.15;42.97;;
66335;Laerm;53138;51.496;6.410;2023-03-13T00:26:29;36.12;34.32;38.40;;
66335;Laerm;53138;51.496;6.410;2023-03-13T00:26:40;36.98;34.12;48.44;;
66335;Laerm;53138;51.496;6.410;2023-03-13T00:26:50;36.63;34.70;42.41;;
66335;Laerm;53138;51.496;6.410;2023-03-13T00:27:00;36.23;34.63;37.96;;
66335;Laerm;53138;51.496;6.410;2023-03-13T00:27:12;36.79;33.97;50.13;;
66335;Laerm;53138;51.496;6.410;2023-03-13T00:27:22;37.44;34.12;49.52;;
66335;Laerm;53138;51.496;6.410;2023-03-13T00:27:32;38.10;34.36;52.07;;
66335;Laerm;53138;51.496;6.410;2023-03-13T00:27:43;36.61;34.67;46.32;;
66335;Laerm;53138;51.496;6.410;2023-03-13T00:27:53;37.36;34.00;49.80;;
66335;Laerm;53138;51.496;6.410;2023-03-13T00:28:04;36.53;34.29;39.04;;
66335;Laerm;53138;51.496;6.410;2023-03-13T00:28:14;36.75;34.52;45.19;;
66335;Laerm;53138;51.496;6.410;2023-03-13T00:28:24;39.80;34.77;55.53;;
66335;Laerm;53138;51.496;6.410;2023-03-13T00:28:35;37.38;34.97;41.03;;
66335;Laerm;53138;51.496;6.410;2023-03-13T00:28:46;40.91;36.37;45.45;;
66335;Laerm;53138;51.496;6.410;2023-03-13T00:28:56;36.30;33.38;39.25;;
66335;Laerm;53138;51.496;6.410;2023-03-13T00:29:06;35.48;33.50;41.58;;
66335;Laerm;53138;51.496;6.410;2023-03-13T00:29:17;36.15;33.80;44.57;;
66335;Laerm;53138;51.496;6.410;2023-03-13T00:29:27;37.72;34.75;43.14;;
66335;Laerm;53138;51.496;6.410;2023-03-13T00:29:37;40.14;36.89;47.26;;
66335;Laerm;53138;51.496;6.410;2023-03-13T00:29:47;41.59;37.99;49.00;;
66335;Laerm;53138;51.496;6.410;2023-03-13T00:29:59;44.51;39.94;49.66;;
66335;Laerm;53138;51.496;6.410;2023-03-13T00:30:09;45.43;42.02;49.09;;
66335;Laerm;53138;51.496;6.410;2023-03-13T00:30:20;45.87;42.29;54.69;;
66335;Laerm;53138;51.496;6.410;2023-03-13T00:30:30;46.11;43.60;49.67;;
66335;Laerm;53138;51.496;6.410;2023-03-13T00:30:40;46.20;43.78;50.09;;
66335;Laerm;53138;51.496;6.410;2023-03-13T00:30:50;45.90;43.74;48.00;;
66335;Laerm;53138;51.496;6.410;2023-03-13T00:31:32;45.53;43.02;51.65;;
66335;Laerm;53138;51.496;6.410;2023-03-13T00:31:41;45.31;42.29;54.25;;
66335;Laerm;53138;51.496;6.410;2023-03-13T00:31:51;43.94;41.54;46.29;;
66335;Laerm;53138;51.496;6.410;2023-03-13T00:32:02;43.99;41.40;52.62;;
66335;Laerm;53138;51.496;6.410;2023-03-13T00:32:12;43.79;40.62;47.52;;
66335;Laerm;53138;51.496;6.410;2023-03-13T00:32:22;44.91;42.40;50.03;;
66335;Laerm;53138;51.496;6.410;2023-03-13T00:32:32;47.02;43.57;53.85;;
66335;Laerm;53138;51.496;6.410;2023-03-13T00:32:43;47.74;43.99;55.28;;
66335;Laerm;53138;51.496;6.410;2023-03-13T00:32:55;49.02;45.77;56.33;;
66335;Laerm;53138;51.496;6.410;2023-03-13T00:33:05;50.80;46.91;56.48;;
66335;Laerm;53138;51.496;6.410;2023-03-13T00:33:15;50.51;47.61;55.30;;
66335;Laerm;53138;51.496;6.410;2023-03-13T00:33:25;49.90;46.15;56.51;;
66335;Laerm;53138;51.496;6.410;2023-03-13T00:33:36;48.32;45.24;52.68;;
66335;Laerm;53138;51.496;6.410;2023-03-13T00:33:47;46.88;44.08;50.61;;
66335;Laerm;53138;51.496;6.410;2023-03-13T00:33:59;45.91;42.57;55.59;;
66335;Laerm;53138;51.496;6.410;2023-03-13T00:34:09;45.31;42.93;49.26;;
66335;Laerm;53138;51.496;6.410;2023-03-13T00:34:20;44.95;42.59;53.05;;
66335;Laerm;53138;51.496;6.410;2023-03-13T00:34:30;45.28;43.13;53.08;;
66335;Laerm;53138;51.496;6.410;2023-03-13T00:34:40;45.05;42.89;49.96;;
66335;Laerm;53138;51.496;6.410;2023-03-13T00:34:50;45.39;42.76;56.25;;
66335;Laerm;53138;51.496;6.410;2023-03-13T00:35:00;45.18;42.12;50.28;;
66335;Laerm;53138;51.496;6.410;2023-03-13T00:35:11;45.86;43.55;53.47;;
66335;Laerm;53138;51.496;6.410;2023-03-13T00:35:22;45.86;42.44;54.13;;
66335;Laerm;53138;51.496;6.410;2023-03-13T00:35:32;46.10;43.00;50.43;;
66335;Laerm;53138;51.496;6.410;2023-03-13T00:35:42;47.40;44.25;53.30;;
66335;Laerm;53138;51.496;6.410;2023-03-13T00:35:56;47.69;45.01;51.17;;
66335;Laerm;53138;51.496;6.410;2023-03-13T00:36:07;48.38;44.83;55.17;;
66335;Laerm;53138;51.496;6.410;2023-03-13T00:36:19;47.97;45.25;50.54;;
66335;Laerm;53138;51.496;6.410;2023-03-13T00:36:30;47.54;44.58;55.74;;
66335;Laerm;53138;51.496;6.410;2023-03-13T00:36:41;46.52;44.35;49.74;;
66335;Laerm;53138;51.496;6.410;2023-03-13T00:36:51;46.39;43.60;53.63;;
66335;Laerm;53138;51.496;6.410;2023-03-13T00:37:01;45.31;42.83;50.33;;
66335;Laerm;53138;51.496;6.410;2023-03-13T00:37:12;45.21;42.31;56.71;;
66335;Laerm;53138;51.496;6.410;2023-03-13T00:37:22;44.79;42.29;51.06;;
66335;Laerm;53138;51.496;6.410;2023-03-13T00:37:32;45.16;42.14;54.58;;
66335;Laerm;53138;51.496;6.410;2023-03-13T00:37:42;44.15;41.71;50.54;;
66335;Laerm;53138;51.496;6.410;2023-03-13T00:37:53;44.36;41.83;53.90;;
66335;Laerm;53138;51.496;6.410;2023-03-13T00:38:03;43.95;41.17;47.77;;
66335;Laerm;53138;51.496;6.410;2023-03-13T00:38:13;44.41;40.97;55.55;;
66335;Laerm;53138;51.496;6.410;2023-03-13T00:38:23;44.17;41.64;53.19;;
66335;Laerm;53138;51.496;6.410;2023-03-13T00:38:34;43.86;41.39;57.59;;
66335;Laerm;53138;51.496;6.410;2023-03-13T00:38:44;44.16;42.03;50.78;;
66335;Laerm;53138;51.496;6.410;2023-03-13T00:38:54;44.46;41.87;47.49;;
66335;Laerm;53138;51.496;6.410;2023-03-13T00:39:05;45.36;42.79;52.05;;
66335;Laerm;53138;51.496;6.410;2023-03-13T00:39:16;44.53;41.95;54.56;;
66335;Laerm;53138;51.496;6.410;2023-03-13T00:39:26;43.26;41.20;49.72;;
66335;Laerm;53138;51.496;6.410;2023-03-13T00:39:36;43.56;41.06;53.96;;
66335;Laerm;53138;51.496;6.410;2023-03-13T00:39:46;43.31;40.93;49.72;;
66335;Laerm;53138;51.496;6.410;2023-03-13T00:39:56;43.44;41.23;53.96;;
66335;Laerm;53138;51.496;6.410;2023-03-13T00:40:07;42.85;40.03;45.08;;
66335;Laerm;53138;51.496;6.410;2023-03-13T00:40:17;43.20;40.24;50.28;;
66335;Laerm;53138;51.496;6.410;2023-03-13T00:40:29;43.48;41.12;53.18;;
66335;Laerm;53138;51.496;6.410;2023-03-13T00:40:39;43.57;41.24;51.47;;
66335;Laerm;53138;51.496;6.410;2023-03-13T00:40:57;43.42;40.61;48.33;;
66335;Laerm;53138;51.496;6.410;2023-03-13T00:41:08;43.66;40.61;53.17;;
66335;Laerm;53138;51.496;6.410;2023-03-13T00:41:22;43.10;40.69;47.44;;
66335;Laerm;53138;51.496;6.410;2023-03-13T00:41:33;42.97;39.76;56.37;;
66335;Laerm;53138;51.496;6.410;2023-03-13T00:41:44;41.82;39.06;51.49;;
66335;Laerm;53138;51.496;6.410;2023-03-13T00:41:55;40.26;37.55;43.53;;
66335;Laerm;53138;51.496;6.410;2023-03-13T00:42:05;39.26;36.95;49.00;;
66335;Laerm;53138;51.496;6.410;2023-03-13T00:42:15;39.20;36.04;50.45;;
66335;Laerm;53138;51.496;6.410;2023-03-13T00:42:25;38.48;36.52;44.98;;
66335;Laerm;53138;51.496;6.410;2023-03-13T00:42:35;40.93;37.10;52.78;;
66335;Laerm;53138;51.496;6.410;2023-03-13T00:42:45;41.10;37.45;52.36;;
66335;Laerm;53138;51.496;6.410;2023-03-13T00:42:56;38.39;35.56;49.03;;
66335;Laerm;53138;51.496;6.410;2023-03-13T00:43:06;37.61;34.83;49.66;;
66335;Laerm;53138;51.496;6.410;2023-03-13T00:43:16;37.95;34.46;48.90;;
66335;Laerm;53138;51.496;6.410;2023-03-13T00:43:26;38.31;34.63;53.75;;
66335;Laerm;53138;51.496;6.410;2023-03-13T00:43:37;38.42;34.93;43.85;;
66335;Laerm;53138;51.496;6.410;2023-03-13T00:43:48;41.93;35.99;50.77;;
66335;Laerm;53138;51.496;6.410;2023-03-13T00:43:59;37.58;33.41;50.78;;
66335;Laerm;53138;51.496;6.410;2023-03-13T00:44:09;36.64;33.26;49.22;;
66335;Laerm;53138;51.496;6.410;2023-03-13T00:44:19;36.08;33.35;48.42;;
66335;Laerm;53138;51.496;6.410;2023-03-13T00:44:29;38.36;33.44;56.93;;
66335;Laerm;53138;51.496;6.410;2023-03-13T00:44:39;39.09;33.14;59.19;;
66335;Laerm;53138;51.496;6.410;2023-03-13T00:44:49;36.65;33.30;52.55;;
66335;Laerm;53138;51.496;6.410;2023-03-13T00:45:00;35.96;33.52;45.09;;
66335;Laerm;53138;51.496;6.410;2023-03-13T00:45:10;36.28;33.32;52.19;;
66335;Laerm;53138;51.496;6.410;2023-03-13T00:45:20;36.39;33.79;49.79;;
66335;Laerm;53138;51.496;6.410;2023-03-13T00:45:30;39.15;33.83;57.08;;
66335;Laerm;53138;51.496;6.410;2023-03-13T00:45:40;37.29;34.03;47.19;;
66335;Laerm;53138;51.496;6.410;2023-03-13T00:45:51;36.44;34.23;45.28;;
66335;Laerm;53138;51.496;6.410;2023-03-13T00:46:01;39.03;33.02;55.82;;
66335;Laerm;53138;51.496;6.410;2023-03-13T00:46:12;35.63;33.53;43.77;;
66335;Laerm;53138;51.496;6.410;2023-03-13T00:46:23;35.11;32.73;41.86;;
66335;Laerm;53138;51.496;6.410;2023-03-13T00:46:33;39.26;32.99;57.96;;
66335;Laerm;53138;51.496;6.410;2023-03-13T00:46:43;38.35;34.33;51.28;;
66335;Laerm;53138;51.496;6.410;2023-03-13T00:46:54;42.39;35.65;60.79;;
66335;Laerm;53138;51.496;6.410;2023-03-13T00:47:04;37.14;33.63;48.14;;
66335;Laerm;53138;51.496;6.410;2023-03-13T00:47:16;38.97;33.42;54.57;;
66335;Laerm;53138;51.496;6.410;2023-03-13T00:47:26;35.88;33.05;44.46;;
66335;Laerm;53138;51.496;6.410;2023-03-13T00:47:36;37.19;33.04;53.36;;
66335;Laerm;53138;51.496;6.410;2023-03-13T00:47:46;36.35;33.25;48.04;;
66335;Laerm;53138;51.496;6.410;2023-03-13T00:47:58;36.61;32.91;51.55;;
66335;Laerm;53138;51.496;6.410;2023-03-13T00:48:09;34.74;32.35;43.03;;
66335;Laerm;53138;51.496;6.410;2023-03-13T00:48:19;36.22;32.83;50.94;;
66335;Laerm;53138;51.496;6.410;2023-03-13T00:48:29;35.11;32.71;41.52;;
66335;Laerm;53138;51.496;6.410;2023-03-13T00:48:40;36.80;32.37;53.22;;
66335;Laerm;53138;51.496;6.410;2023-03-13T00:48:50;34.94;32.60;44.38;;
66335;Laerm;53138;51.496;6.410;2023-03-13T00:49:01;35.13;32.21;42.86;;
66335;Laerm;53138;51.496;6.410;2023-03-13T00:49:11;35.05;32.69;47.02;;
66335;Laerm;53138;51.496;6.410;2023-03-13T00:49:21;35.16;32.09;45.95;;
66335;Laerm;53138;51.496;6.410;2023-03-13T00:49:32;34.61;32.59;36.57;;
66335;Laerm;53138;51.496;6.410;2023-03-13T00:49:42;35.67;33.24;43.13;;
66335;Laerm;53138;51.496;6.410;2023-03-13T00:49:52;37.40;33.86;49.15;;
66335;Laerm;53138;51.496;6.410;2023-03-13T00:50:03;39.88;33.18;56.11;;
66335;Laerm;53138;51.496;6.410;2023-03-13T00:50:13;37.14;33.24;54.78;;
66335;Laerm;53138;51.496;6.410;2023-03-13T00:50:23;36.19;32.92;51.46;;
66335;Laerm;53138;51.496;6.410;2023-03-13T00:50:33;38.81;33.81;53.33;;
66335;Laerm;53138;51.496;6.410;2023-03-13T00:50:44;36.67;33.55;50.35;;
66335;Laerm;53138;51.496;6.410;2023-03-13T00:50:54;36.00;32.98;47.96;;
66335;Laerm;53138;51.496;6.410;2023-03-13T00:51:04;35.00;32.62;39.95;;
66335;Laerm;53138;51.496;6.410;2023-03-13T00:51:15;36.36;33.61;46.22;;
66335;Laerm;53138;51.496;6.410;2023-03-13T00:51:26;37.32;33.85;52.73;;
66335;Laerm;53138;51.496;6.410;2023-03-13T00:51:37;39.93;33.69;55.45;;
66335;Laerm;53138;51.496;6.410;2023-03-13T00:51:47;37.19;33.72;49.38;;
66335;Laerm;53138;51.496;6.410;2023-03-13T00:51:57;36.77;33.84;49.55;;
66335;Laerm;53138;51.496;6.410;2023-03-13T00:52:08;39.66;34.18;56.48;;
66335;Laerm;53138;51.496;6.410;2023-03-13T00:52:18;42.99;34.12;60.95;;
66335;Laerm;53138;51.496;6.410;2023-03-13T00:52:28;38.00;34.47;52.53;;
66335;Laerm;53138;51.496;6.410;2023-03-13T00:52:38;38.28;34.50;53.97;;
66335;Laerm;53138;51.496;6.410;2023-03-13T00:52:48;36.45;32.80;47.44;;
66335;Laerm;53138;51.496;6.410;2023-03-13T00:52:59;39.11;33.44;54.70;;
66335;Laerm;53138;51.496;6.410;2023-03-13T00:53:09;36.51;33.34;48.50;;
66335;Laerm;53138;51.496;6.410;2023-03-13T00:53:19;38.86;33.66;58.10;;
66335;Laerm;53138;51.496;6.410;2023-03-13T00:53:29;37.02;33.37;53.60;;
66335;Laerm;53138;51.496;6.410;2023-03-13T00:53:40;36.23;32.86;50.28;;
66335;Laerm;53138;51.496;6.410;2023-03-13T00:53:50;35.99;33.49;43.88;;
66335;Laerm;53138;51.496;6.410;2023-03-13T00:54:00;36.21;32.99;48.17;;
66335;Laerm;53138;51.496;6.410;2023-03-13T00:54:10;35.44;33.07;44.92;;
66335;Laerm;53138;51.496;6.410;2023-03-13T00:54:21;39.22;33.82;53.91;;
66335;Laerm;53138;51.496;6.410;2023-03-13T00:54:31;38.38;33.66;53.67;;
66335;Laerm;53138;51.496;6.410;2023-03-13T00:54:41;36.02;32.95;48.32;;
66335;Laerm;53138;51.496;6.410;2023-03-13T00:54:52;35.33;32.82;46.07;;
66335;Laerm;53138;51.496;6.410;2023-03-13T00:55:02;35.17;32.66;42.83;;
66335;Laerm;53138;51.496;6.410;2023-03-13T00:55:13;35.04;33.03;38.10;;
66335;Laerm;53138;51.496;6.410;2023-03-13T00:55:23;35.73;33.75;43.66;;
66335;Laerm;53138;51.496;6.410;2023-03-13T00:55:33;35.59;33.15;47.06;;
66335;Laerm;53138;51.496;6.410;2023-03-13T00:55:57;35.32;32.42;49.36;;
66335;Laerm;53138;51.496;6.410;2023-03-13T00:56:09;35.96;32.81;47.35;;
66335;Laerm;53138;51.496;6.410;2023-03-13T00:56:19;37.83;33.66;54.69;;
66335;Laerm;53138;51.496;6.410;2023-03-13T00:56:30;36.69;33.17;43.73;;
66335;Laerm;53138;51.496;6.410;2023-03-13T00:56:40;37.51;34.06;52.20;;
66335;Laerm;53138;51.496;6.410;2023-03-13T00:56:51;36.61;34.33;42.90;;
66335;Laerm;53138;51.496;6.410;2023-03-13T00:57:01;36.38;34.35;45.16;;
66335;Laerm;53138;51.496;6.410;2023-03-13T00:57:11;37.61;35.05;46.30;;
66335;Laerm;53138;51.496;6.410;2023-03-13T00:57:21;38.43;35.60;50.48;;
66335;Laerm;53138;51.496;6.410;2023-03-13T00:57:31;40.27;35.66;55.71;;
66335;Laerm;53138;51.496;6.410;2023-03-13T00:57:46;37.92;35.05;51.60;;
66335;Laerm;53138;51.496;6.410;2023-03-13T00:57:56;37.74;35.31;48.30;;
66335;Laerm;53138;51.496;6.410;2023-03-13T00:58:06;37.11;35.06;43.80;;
66335;Laerm;53138;51.496;6.410;2023-03-13T00:58:16;37.79;35.18;49.63;;
66335;Laerm;53138;51.496;6.410;2023-03-13T00:58:27;37.28;35.22;44.33;;
66335;Laerm;53138;51.496;6.410;2023-03-13T00:58:38;37.84;35.28;50.52;;
66335;Laerm;53138;51.496;6.410;2023-03-13T00:58:49;39.96;36.51;52.72;;
66335;Laerm;53138;51.496;6.410;2023-03-13T00:58:59;37.37;35.20;43.52;;
66335;Laerm;53138;51.496;6.410;2023-03-13T00:59:10;37.82;35.30;46.15;;
66335;Laerm;53138;51.496;6.410;2023-03-13T00:59:20;37.46;35.46;46.27;;
66335;Laerm;53138;51.496;6.410;2023-03-13T00:59:31;38.02;35.16;53.93;;
66335;Laerm;53138;51.496;6.410;2023-03-13T00:59:41;37.33;35.02;47.96;;
66335;Laerm;53138;51.496;6.410;2023-03-13T00:59:51;37.77;35.05;47.02;;
66335;Laerm;53138;51.496;6.410;2023-03-13T01:00:02;38.02;35.63;49.12;;